createdAt,value
2018-02-18T00:01:05.378Z,49.95
2018-02-18T00:03:38.938Z,45.00
2018-02-18T00:06:16.509Z,42.70
2018-02-18T00:08:54.093Z,37.90
2018-02-18T00:11:26.997Z,43.65
2018-02-18T00:14:13.611Z,56.55
2018-02-18T00:16:52.138Z,47.83
2018-02-18T00:19:30.630Z,45.30
2018-02-18T00:22:09.759Z,38.25
2018-02-18T00:24:46.878Z,40.65
2018-02-18T00:27:26.899Z,35.60
2018-02-18T00:30:00.206Z,41.42
2018-02-18T00:32:34.360Z,45.05
2018-02-18T00:35:13.850Z,46.75
2018-02-18T00:37:54.679Z,50.17
2018-02-18T00:40:34.065Z,45.88
2018-02-18T00:43:07.686Z,48.33
2018-02-18T00:45:46.193Z,38.38
2018-02-18T00:48:26.069Z,38.47
2018-02-18T00:51:04.821Z,42.35
2018-02-18T00:53:48.436Z,38.28
2018-02-18T00:56:20.411Z,49.90
2018-02-18T00:58:59.820Z,40.33
2018-02-18T01:01:33.025Z,44.08
2018-02-18T01:04:12.961Z,51.28
2018-02-18T01:06:45.993Z,45.42
2018-02-18T01:09:24.818Z,47.50
2018-02-18T01:12:04.255Z,52.08
2018-02-18T01:14:44.547Z,47.08
2018-02-18T01:17:24.743Z,45.12
2018-02-18T01:20:03.393Z,45.90
2018-02-18T01:22:42.721Z,40.00
2018-02-18T01:25:21.437Z,48.08
2018-02-18T01:28:02.977Z,59.92
2018-02-18T01:30:37.924Z,47.40
2018-02-18T01:33:12.711Z,44.13
2018-02-18T01:35:48.552Z,40.58
2018-02-18T01:38:20.718Z,35.10
2018-02-18T01:40:59.402Z,54.85
2018-02-18T01:43:33.172Z,39.58
2018-02-18T01:46:11.411Z,47.10
2018-02-18T01:48:44.539Z,43.28
2018-02-18T01:51:22.842Z,46.28
2018-02-18T01:54:01.575Z,39.72
2018-02-18T01:56:42.271Z,48.28
2018-02-18T01:59:21.751Z,41.80
2018-02-18T02:01:54.248Z,43.03
2018-02-18T02:04:35.992Z,54.13
2018-02-18T02:07:15.907Z,42.13
2018-02-18T02:09:54.850Z,50.83
2018-02-18T02:12:28.873Z,53.08
2018-02-18T02:15:06.288Z,54.28
2018-02-18T02:17:45.397Z,46.03
2018-02-18T02:20:24.144Z,45.05
2018-02-18T02:22:58.340Z,45.00
2018-02-18T02:25:37.198Z,62.90
2018-02-18T02:28:16.952Z,49.28
2018-02-18T02:30:54.881Z,50.42
2018-02-18T02:33:37.284Z,58.40
2018-02-18T02:36:15.952Z,45.20
2018-02-18T02:38:54.847Z,39.67
2018-02-18T02:41:35.949Z,59.20
2018-02-18T02:44:15.981Z,48.08
2018-02-18T02:46:54.387Z,44.88
2018-02-18T02:49:27.960Z,38.88
2018-02-18T02:52:07.554Z,40.85
2018-02-18T02:54:50.991Z,37.75
2018-02-18T02:57:24.676Z,43.38
2018-02-18T03:00:05.419Z,51.88
2018-02-18T03:02:43.572Z,37.88
2018-02-18T03:05:25.237Z,41.90
2018-02-18T03:08:02.566Z,44.17
2018-02-18T03:10:42.066Z,38.70
2018-02-18T03:13:21.936Z,54.58
2018-02-18T03:16:01.054Z,42.13
2018-02-18T03:18:40.361Z,56.33
2018-02-18T03:21:20.449Z,45.95
2018-02-18T03:23:54.876Z,40.95
2018-02-18T03:26:33.976Z,37.08
2018-02-18T03:29:13.035Z,55.05
2018-02-18T03:31:51.380Z,44.60
2018-02-18T03:34:28.451Z,42.62
2018-02-18T03:37:07.081Z,41.08
2018-02-18T03:39:46.442Z,46.67
2018-02-18T03:42:26.342Z,42.50
2018-02-18T03:45:03.681Z,40.22
2018-02-18T03:47:44.090Z,37.97
2018-02-18T03:50:23.200Z,36.08
2018-02-18T03:53:03.145Z,44.65
2018-02-18T03:55:41.639Z,36.70
2018-02-18T03:58:20.612Z,41.00
2018-02-18T04:00:58.082Z,37.08
2018-02-18T04:03:35.615Z,33.08
2018-02-18T04:06:14.674Z,37.50
2018-02-18T04:08:53.384Z,47.30
2018-02-18T04:11:32.391Z,37.47
2018-02-18T04:14:10.607Z,35.88
2018-02-18T04:16:49.729Z,35.85
2018-02-18T04:19:28.187Z,30.70
2018-02-18T04:22:06.357Z,39.58
2018-02-18T04:24:46.352Z,37.80
2018-02-18T04:27:26.567Z,36.42
2018-02-18T04:30:06.291Z,33.08
2018-02-18T04:32:38.742Z,31.60
2018-02-18T04:35:15.732Z,43.08
2018-02-18T04:37:54.332Z,35.08
2018-02-18T04:40:33.157Z,40.15
2018-02-18T04:43:09.941Z,53.20
2018-02-18T04:45:47.358Z,35.80
2018-02-18T04:48:24.404Z,35.50
2018-02-18T04:51:02.909Z,39.00
2018-02-18T04:53:40.186Z,40.67
2018-02-18T04:56:19.928Z,33.92
2018-02-18T04:58:58.077Z,36.03
2018-02-18T05:01:37.063Z,37.08
2018-02-18T05:04:10.552Z,41.75
2018-02-18T05:06:45.151Z,43.58
2018-02-18T05:09:25.298Z,33.55
2018-02-18T05:11:59.334Z,35.88
2018-02-18T05:14:38.956Z,41.37
2018-02-18T05:17:16.750Z,36.47
2018-02-18T05:19:56.708Z,39.42
2018-02-18T05:22:37.126Z,33.53
2018-02-18T05:25:14.629Z,33.70
2018-02-18T05:27:52.891Z,45.65
2018-02-18T05:30:32.922Z,38.53
2018-02-18T05:33:10.719Z,35.22
2018-02-18T05:35:43.315Z,42.08
2018-02-18T05:38:21.710Z,36.38
2018-02-18T05:40:59.795Z,41.40
2018-02-18T05:43:37.586Z,46.50
2018-02-18T05:46:16.305Z,32.38
2018-02-18T05:48:55.714Z,42.38
2018-02-18T05:51:32.570Z,40.85
2018-02-18T05:54:12.049Z,40.88
2018-02-18T05:56:49.282Z,38.63
2018-02-18T05:59:26.924Z,35.83
2018-02-18T06:02:07.794Z,34.70
2018-02-18T06:04:47.473Z,38.83
2018-02-18T06:07:21.363Z,38.10
2018-02-18T06:09:58.729Z,44.63
2018-02-18T06:12:38.920Z,44.10
2018-02-18T06:15:19.885Z,43.78
2018-02-18T06:17:59.445Z,42.20
2018-02-18T06:20:33.142Z,33.67
2018-02-18T06:23:05.465Z,40.67
2018-02-18T06:25:44.438Z,38.38
2018-02-18T06:28:23.961Z,30.88
2018-02-18T06:31:02.918Z,59.78
2018-02-18T06:33:41.271Z,37.08
2018-02-18T06:36:19.588Z,46.05
2018-02-18T06:38:58.111Z,41.67
2018-02-18T06:41:37.231Z,40.67
2018-02-18T06:44:16.113Z,49.78
2018-02-18T06:46:57.261Z,47.58
2018-02-18T06:49:34.932Z,52.28
2018-02-18T06:52:14.433Z,41.25
2018-02-18T06:54:53.695Z,42.90
2018-02-18T06:57:32.498Z,33.80
2018-02-18T07:00:12.261Z,52.90
2018-02-18T07:02:52.401Z,42.72
2018-02-18T07:05:31.928Z,43.67
2018-02-18T07:08:11.090Z,36.78
2018-02-18T07:10:52.700Z,39.92
2018-02-18T07:14:50.437Z,44.90
2018-02-18T07:17:32.458Z,40.42
2018-02-18T07:20:10.998Z,47.83
2018-02-18T07:22:48.700Z,42.38
2018-02-18T07:25:22.183Z,46.40
2018-02-18T07:27:59.683Z,42.42
2018-02-18T07:30:40.871Z,57.17
2018-02-18T07:33:21.049Z,52.38
2018-02-18T07:35:59.379Z,40.03
2018-02-18T07:38:34.321Z,45.30
2018-02-18T07:41:12.776Z,47.60
2018-02-18T07:43:51.725Z,44.83
2018-02-18T07:46:30.146Z,41.35
2018-02-18T07:49:09.225Z,42.47
2018-02-18T07:51:49.843Z,38.42
2018-02-18T07:54:29.994Z,42.20
2018-02-18T07:57:11.162Z,39.90
2018-02-18T07:59:49.727Z,39.67
2018-02-18T08:02:24.856Z,41.35
2018-02-18T08:05:05.128Z,44.30
2018-02-18T08:07:42.904Z,36.60
2018-02-18T08:10:16.689Z,39.88
2018-02-18T08:12:55.570Z,46.95
2018-02-18T08:15:34.482Z,39.25
2018-02-18T08:18:14.688Z,40.88
2018-02-18T08:20:54.754Z,40.65
2018-02-18T08:23:38.228Z,37.88
2018-02-18T08:26:13.111Z,46.97
2018-02-18T08:28:56.197Z,40.83
2018-02-18T08:31:30.218Z,41.00
2018-02-18T08:34:03.833Z,41.65
2018-02-18T08:36:38.210Z,44.33
2018-02-18T08:39:22.043Z,40.55
2018-02-18T08:41:54.458Z,43.08
2018-02-18T08:44:32.063Z,46.00
2018-02-18T08:47:15.585Z,45.30
2018-02-18T08:49:56.704Z,36.17
2018-02-18T08:52:39.082Z,34.95
2018-02-18T08:55:20.866Z,39.65
2018-02-18T08:58:00.560Z,39.35
2018-02-18T09:00:41.732Z,45.35
2018-02-18T09:03:15.394Z,44.80
2018-02-18T09:05:57.189Z,42.58
2018-02-18T09:08:38.774Z,37.65
2018-02-18T09:11:13.521Z,48.13
2018-02-18T09:13:54.484Z,41.08
2018-02-18T09:16:28.155Z,35.70
2018-02-18T09:19:04.201Z,38.17
2018-02-18T09:21:41.306Z,34.88
2018-02-18T09:24:19.661Z,35.38
2018-02-18T09:27:00.643Z,39.35
2018-02-18T09:29:42.573Z,36.20
2018-02-18T09:32:20.776Z,37.67
2018-02-18T09:34:58.451Z,39.50
2018-02-18T09:37:40.694Z,33.83
2018-02-18T09:40:13.112Z,39.17
2018-02-18T09:42:52.696Z,36.17
2018-02-18T09:45:34.531Z,38.30
2018-02-18T09:48:15.130Z,42.65
2018-02-18T09:50:55.333Z,41.25
2018-02-18T09:53:30.154Z,40.42
2018-02-18T09:56:08.720Z,37.05
2018-02-18T09:58:51.057Z,37.95
2018-02-18T10:01:30.246Z,42.58
2018-02-18T10:04:09.195Z,43.95
2018-02-18T10:06:48.102Z,37.70
2018-02-18T10:09:28.652Z,37.20
2018-02-18T10:12:06.812Z,40.90
2018-02-18T10:14:46.709Z,52.00
2018-02-18T10:17:25.881Z,42.42
2018-02-18T10:19:59.988Z,29.75
2018-02-18T10:22:39.888Z,37.42
2018-02-18T10:25:20.660Z,37.55
2018-02-18T10:28:02.897Z,44.70
2018-02-18T10:30:36.817Z,39.55
2018-02-18T10:33:15.519Z,40.90
2018-02-18T10:35:56.957Z,37.58
2018-02-18T10:38:38.364Z,35.92
2018-02-18T10:41:16.632Z,46.33
2018-02-18T10:43:56.952Z,38.10
2018-02-18T10:46:33.691Z,37.35
2018-02-18T10:49:06.795Z,46.05
2018-02-18T10:51:41.854Z,33.40
2018-02-18T10:54:23.704Z,37.22
2018-02-18T10:56:58.077Z,39.42
2018-02-18T10:59:36.783Z,34.83
2018-02-18T11:02:16.192Z,40.05
2018-02-18T11:04:56.430Z,42.70
2018-02-18T11:07:35.195Z,49.58
2018-02-18T11:10:13.358Z,42.97
2018-02-18T11:12:54.731Z,38.35
2018-02-18T11:15:36.200Z,33.42
2018-02-18T11:18:13.735Z,32.45
2018-02-18T11:20:51.227Z,45.67
2018-02-18T11:23:29.253Z,33.30
2018-02-18T11:26:06.273Z,36.33
2018-02-18T11:28:47.744Z,37.65
2018-02-18T11:31:30.984Z,36.78
2018-02-18T11:34:08.898Z,41.78
2018-02-18T11:36:51.406Z,37.97
2018-02-18T11:39:29.979Z,34.28
2018-02-18T11:42:09.785Z,35.65
2018-02-18T11:44:51.233Z,34.42
2018-02-18T11:47:23.976Z,40.97
2018-02-18T11:49:59.323Z,34.35
2018-02-18T11:52:37.616Z,33.38
2018-02-18T11:55:17.258Z,38.90
2018-02-18T11:57:55.372Z,46.70
2018-02-18T12:00:35.488Z,37.72
2018-02-18T12:03:16.700Z,34.20
2018-02-18T12:05:55.614Z,40.35
2018-02-18T12:08:37.075Z,36.63
2018-02-18T12:11:15.270Z,39.00
2018-02-18T12:13:55.848Z,32.10
2018-02-18T12:16:35.831Z,40.25
2018-02-18T12:19:15.781Z,40.40
2018-02-18T12:21:54.146Z,38.15
2018-02-18T12:24:28.218Z,35.53
2018-02-18T12:27:02.088Z,37.25
2018-02-18T12:29:35.450Z,39.60
2018-02-18T12:32:18.045Z,37.53
2018-02-18T12:34:58.125Z,37.90
2018-02-18T12:37:32.704Z,35.00
2018-02-18T12:40:11.372Z,39.40
2018-02-18T12:42:52.328Z,36.90
2018-02-18T12:45:31.107Z,36.10
2018-02-18T12:48:11.535Z,32.83
2018-02-18T12:50:53.273Z,44.53
2018-02-18T12:53:32.840Z,35.35
2018-02-18T12:56:10.373Z,47.70
2018-02-18T12:58:52.208Z,38.70
2018-02-18T13:01:33.605Z,33.17
2018-02-18T13:04:18.728Z,36.28
2018-02-18T13:07:00.267Z,30.58
2018-02-18T13:09:39.611Z,41.35
2018-02-18T13:12:20.611Z,37.92
2018-02-18T13:15:01.221Z,43.42
2018-02-18T13:17:42.870Z,33.63
2018-02-18T13:20:22.481Z,37.08
2018-02-18T13:23:01.105Z,40.30
2018-02-18T13:25:41.088Z,32.38
2018-02-18T13:28:20.891Z,35.45
2018-02-18T13:30:56.083Z,40.97
2018-02-18T13:33:35.519Z,35.95
2018-02-18T13:36:15.700Z,43.45
2018-02-18T13:38:50.592Z,43.20
2018-02-18T13:41:26.870Z,39.75
2018-02-18T13:44:06.889Z,38.90
2018-02-18T13:46:48.360Z,38.90
2018-02-18T13:49:31.374Z,35.00
2018-02-18T13:52:11.792Z,46.13
2018-02-18T13:54:51.963Z,44.00
2018-02-18T13:57:27.115Z,40.92
2018-02-18T14:00:07.698Z,35.05
2018-02-18T14:02:50.230Z,37.88
2018-02-18T14:05:29.886Z,39.00
2018-02-18T14:08:11.508Z,38.30
2018-02-18T14:10:47.227Z,39.70
2018-02-18T14:13:29.677Z,45.80
2018-02-18T14:16:09.903Z,42.03
2018-02-18T14:18:46.599Z,47.42
2018-02-18T14:21:24.471Z,38.63
2018-02-18T14:24:05.027Z,40.65
2018-02-18T14:26:46.681Z,32.38
2018-02-18T14:29:21.220Z,35.83
2018-02-18T14:32:01.966Z,34.92
2018-02-18T14:34:42.222Z,36.30
2018-02-18T14:37:21.261Z,36.63
2018-02-18T14:40:00.204Z,38.95
2018-02-18T14:42:48.383Z,42.47
2018-02-18T14:45:36.543Z,36.33
2018-02-18T14:48:18.778Z,32.88
2018-02-18T14:51:06.311Z,36.55
2018-02-18T14:53:52.977Z,43.85
2018-02-18T14:56:40.502Z,42.20
2018-02-18T14:59:20.884Z,32.90
2018-02-18T15:02:03.034Z,36.63
2018-02-18T15:04:39.102Z,41.67
2018-02-18T15:07:19.435Z,34.80
2018-02-18T15:09:55.123Z,32.85
2018-02-18T15:12:35.900Z,36.65
2018-02-18T15:15:15.823Z,37.50
2018-02-18T15:17:52.695Z,34.15
2018-02-18T15:20:34.031Z,40.78
2018-02-18T15:23:17.134Z,36.22
2018-02-18T15:25:56.157Z,39.78
2018-02-18T15:28:35.036Z,36.15
2018-02-18T15:31:16.973Z,35.13
2018-02-18T15:33:57.612Z,45.60
2018-02-18T15:36:40.125Z,45.90
2018-02-18T15:39:19.738Z,39.15
2018-02-18T15:42:01.194Z,34.20
2018-02-18T15:44:35.948Z,32.08
2018-02-18T15:47:17.800Z,26.90
2018-02-18T15:49:55.502Z,30.27
2018-02-18T15:52:37.510Z,37.95
2018-02-18T15:55:16.108Z,33.67
2018-02-18T15:58:01.599Z,27.52
2018-02-18T16:00:36.753Z,30.27
2018-02-18T16:03:11.141Z,32.47
2018-02-18T16:05:48.956Z,34.17
2018-02-18T16:08:29.223Z,34.08
2018-02-18T16:11:03.809Z,28.95
2018-02-18T16:13:40.580Z,31.90
2018-02-18T16:16:18.241Z,32.05
2018-02-18T16:18:56.968Z,30.95
2018-02-18T16:21:32.322Z,31.58
2018-02-18T16:24:09.051Z,34.45
2018-02-18T16:26:42.880Z,40.30
2018-02-18T16:29:21.879Z,35.17
2018-02-18T16:31:59.939Z,39.50
2018-02-18T16:34:38.387Z,35.22
2018-02-18T16:37:17.117Z,37.70
2018-02-18T16:39:59.790Z,40.78
2018-02-18T16:42:42.031Z,36.05
2018-02-18T16:45:24.383Z,36.88
2018-02-18T16:48:03.090Z,34.88
2018-02-18T16:50:40.253Z,36.67
2018-02-18T16:53:15.988Z,35.25
2018-02-18T16:55:58.806Z,30.65
2018-02-18T16:58:33.984Z,42.28
2018-02-18T17:01:12.107Z,34.90
2018-02-18T17:03:45.564Z,32.95
2018-02-18T17:06:23.878Z,40.17
2018-02-18T17:09:07.564Z,47.62
2018-02-18T17:11:49.654Z,28.30
2018-02-18T17:14:28.785Z,38.17
2018-02-18T17:17:02.796Z,39.15
2018-02-18T17:19:42.068Z,35.67
2018-02-18T17:22:22.436Z,36.47
2018-02-18T17:25:05.505Z,36.72
2018-02-18T17:27:45.335Z,35.90
2018-02-18T17:30:22.445Z,43.17
2018-02-18T17:33:01.413Z,37.03
2018-02-18T17:35:40.926Z,37.17
2018-02-18T17:38:19.432Z,43.00
2018-02-18T17:40:58.161Z,35.17
2018-02-18T17:43:39.582Z,43.65
2018-02-18T17:46:22.743Z,44.83
2018-02-18T17:48:57.332Z,39.88
2018-02-18T17:51:36.551Z,38.55
2018-02-18T17:54:17.029Z,40.15
2018-02-18T17:56:52.354Z,50.67
2018-02-18T17:59:31.099Z,37.65
2018-02-18T18:02:11.568Z,33.97
2018-02-18T18:04:51.489Z,36.75
2018-02-18T18:07:31.995Z,37.75
2018-02-18T18:10:11.426Z,43.80
2018-02-18T18:12:51.190Z,43.05
2018-02-18T18:15:30.234Z,38.55
2018-02-18T18:18:07.646Z,41.95
2018-02-18T18:20:41.160Z,44.00
2018-02-18T18:23:21.058Z,39.63
2018-02-18T18:25:59.528Z,46.50
2018-02-18T18:28:40.121Z,46.67
2018-02-18T18:31:13.472Z,50.65
2018-02-18T18:33:52.722Z,40.70
2018-02-18T18:36:32.414Z,44.03
2018-02-18T18:39:14.483Z,40.92
2018-02-18T18:41:56.885Z,46.63
2018-02-18T18:44:38.354Z,49.55
2018-02-18T18:47:17.826Z,46.95
2018-02-18T18:49:54.968Z,52.83
2018-02-18T18:52:29.696Z,41.67
2018-02-18T18:55:12.920Z,50.03
2018-02-18T18:57:51.316Z,56.50
2018-02-18T19:00:31.122Z,50.40
2018-02-18T19:03:05.088Z,49.78
2018-02-18T19:05:44.665Z,53.25
2018-02-18T19:08:22.770Z,55.38
2018-02-18T19:11:00.046Z,58.20
2018-02-18T19:13:34.489Z,59.38
2018-02-18T19:16:12.325Z,46.67
2018-02-18T19:18:51.339Z,63.28
2018-02-18T19:21:31.523Z,63.13
2018-02-18T19:24:10.227Z,62.00
2018-02-18T19:26:47.796Z,57.62
2018-02-18T19:29:28.348Z,63.28
2018-02-18T19:32:07.375Z,60.83
2018-02-18T19:34:48.765Z,69.10
2018-02-18T19:37:30.619Z,62.85
2018-02-18T19:40:16.279Z,58.20
2018-02-18T19:42:53.867Z,55.17
2018-02-18T19:45:28.762Z,64.00
2018-02-18T19:48:13.772Z,61.03
2018-02-18T19:50:46.949Z,53.30
2018-02-18T19:53:26.588Z,69.68
2018-02-18T19:56:06.240Z,71.72
2018-02-18T19:58:40.514Z,60.70
2018-02-18T20:01:13.627Z,63.80
2018-02-18T20:03:56.013Z,59.45
2018-02-18T20:06:36.352Z,65.47
2018-02-18T20:09:19.057Z,71.80
2018-02-18T20:12:01.967Z,62.97
2018-02-18T20:14:35.822Z,75.25
2018-02-18T20:17:15.421Z,53.63
2018-02-18T20:19:55.747Z,67.68
2018-02-18T20:22:35.130Z,59.90
2018-02-18T20:25:14.962Z,48.97
2018-02-18T20:27:51.057Z,58.50
2018-02-18T20:30:32.260Z,49.75
2018-02-18T20:33:12.045Z,58.85
2018-02-18T20:35:48.607Z,60.72
2018-02-18T20:38:30.570Z,52.08
2018-02-18T20:41:10.395Z,50.05
2018-02-18T20:43:49.714Z,54.10
2018-02-18T20:46:30.360Z,48.47
2018-02-18T20:49:09.901Z,56.58
2018-02-18T20:51:48.838Z,55.42
2018-02-18T20:54:29.650Z,48.42
2018-02-18T20:57:08.625Z,56.78
2018-02-18T20:59:48.320Z,48.03
2018-02-18T21:02:23.052Z,51.83
2018-02-18T21:05:01.996Z,48.95
2018-02-18T21:07:41.455Z,57.03
2018-02-18T21:10:20.692Z,63.85
2018-02-18T21:13:03.428Z,66.82
2018-02-18T21:15:42.568Z,52.50
2018-02-18T21:18:24.196Z,53.78
2018-02-18T21:20:58.761Z,56.35
2018-02-18T21:23:36.780Z,64.78
2018-02-18T21:26:16.169Z,56.65
2018-02-18T21:28:55.441Z,54.72
2018-02-18T21:31:35.404Z,60.90
2018-02-18T21:34:09.302Z,54.75
2018-02-18T21:36:43.472Z,51.72
2018-02-18T21:39:23.264Z,51.72
2018-02-18T21:42:03.656Z,49.83
2018-02-18T21:44:42.908Z,61.55
2018-02-18T21:47:25.583Z,49.83
2018-02-18T21:50:05.486Z,66.20
2018-02-18T21:52:44.451Z,47.67
2018-02-18T21:55:19.751Z,59.33
2018-02-18T21:57:58.844Z,55.40
2018-02-18T22:00:39.536Z,52.47
2018-02-18T22:03:18.682Z,52.85
2018-02-18T22:05:59.007Z,57.50
2018-02-18T22:08:39.537Z,52.67
2018-02-18T22:11:19.070Z,50.80
2018-02-18T22:13:58.625Z,64.75
2018-02-18T22:16:40.513Z,53.72
2018-02-18T22:19:17.064Z,50.30
2018-02-18T22:21:58.320Z,51.28
2018-02-18T22:24:37.065Z,50.20
2018-02-18T22:27:17.117Z,56.22
2018-02-18T22:29:57.628Z,52.83
2018-02-18T22:32:35.546Z,68.47
2018-02-18T22:35:15.657Z,55.17
2018-02-18T22:37:55.954Z,69.82
2018-02-18T22:40:38.838Z,52.35
2018-02-18T22:43:14.042Z,56.40
2018-02-18T22:45:52.298Z,55.28
2018-02-18T22:48:31.862Z,50.67
2018-02-18T22:51:11.330Z,57.15
2018-02-18T22:53:50.411Z,58.13
2018-02-18T22:56:30.484Z,56.05
2018-02-18T22:59:06.279Z,53.80
2018-02-18T23:01:42.363Z,50.33
2018-02-18T23:04:24.397Z,55.33
2018-02-18T23:07:00.283Z,59.63
2018-02-18T23:09:43.991Z,55.15
2018-02-18T23:12:22.261Z,64.93
2018-02-18T23:15:03.424Z,66.30
2018-02-18T23:17:38.781Z,67.95
2018-02-18T23:20:17.321Z,53.87
2018-02-18T23:22:56.129Z,72.57
2018-02-18T23:25:36.412Z,69.68
2018-02-18T23:28:10.594Z,56.88
2018-02-18T23:30:50.198Z,63.65
2018-02-18T23:33:30.320Z,60.97
2018-02-18T23:36:09.979Z,80.00
2018-02-18T23:38:47.960Z,57.25
2018-02-18T23:41:26.443Z,75.45
2018-02-18T23:44:05.199Z,74.80
2018-02-18T23:46:43.633Z,66.50
2018-02-18T23:49:23.393Z,66.40
2018-02-18T23:51:57.465Z,62.15
2018-02-18T23:54:35.793Z,75.65
2018-02-18T23:57:14.739Z,60.78
2018-02-18T23:59:54.692Z,65.78
